Time;durP1;ratioP1;P1;durP2;ratioP2;P2;SDS_P1;SDS_P2;PMS_P1;PMS_P2;Temp;Humidity;BMP_temperature;BMP_pressure;BME280_temperature;BME280_humidity;BME280_pressure;Samples;Min_cycle;Max_cycle;Signal;HPM_P1;HPM_P2
2021/06/19 00:02:04;;;;;;;13.43;4.45;;;26.60;80.60;;;;;;5054443;28;20048;-62
2021/06/19 00:04:31;;;;;;;8.35;4.35;;;26.50;80.80;;;;;;5054044;28;20475;-62
2021/06/19 00:07:04;;;;;;;13.30;4.97;;;26.50;81.30;;;;;;5072610;28;20029;-62
2021/06/19 00:09:31;;;;;;;18.10;5.45;;;26.50;81.50;;;;;;5071928;28;20212;-62
2021/06/19 00:11:56;;;;;;;11.15;4.25;;;26.30;82.00;;;;;;5072289;28;20024;-61
2021/06/19 00:14:22;;;;;;;11.07;5.22;;;26.20;82.70;;;;;;5053778;28;20405;-62
2021/06/19 00:16:48;;;;;;;10.68;4.30;;;26.30;82.70;;;;;;5054450;28;20108;-62
2021/06/19 00:19:14;;;;;;;13.43;4.85;;;26.10;83.20;;;;;;5071886;28;20124;-62
2021/06/19 00:21:43;;;;;;;10.98;4.68;;;26.10;83.50;;;;;;5054449;28;20032;-62
2021/06/19 00:24:10;;;;;;;8.45;4.50;;;26.10;83.60;;;;;;5072414;28;20055;-61
2021/06/19 00:26:37;;;;;;;9.73;3.83;;;26.00;84.00;;;;;;5072627;28;20036;-60
2021/06/19 00:29:03;;;;;;;10.25;4.60;;;26.00;84.00;;;;;;5072531;28;20111;-61
2021/06/19 00:31:29;;;;;;;14.85;5.07;;;26.00;84.00;;;;;;5071755;28;20056;-61
2021/06/19 00:33:55;;;;;;;17.90;5.38;;;25.90;84.10;;;;;;5054520;28;20429;-61
2021/06/19 00:36:21;;;;;;;14.43;5.88;;;25.80;84.60;;;;;;5072214;28;20156;-61
2021/06/19 00:38:46;;;;;;;34.38;8.43;;;25.80;84.80;;;;;;5054622;28;20024;-60
2021/06/19 00:41:12;;;;;;;10.52;4.78;;;25.90;85.20;;;;;;5087612;28;20064;-66
2021/06/19 00:43:38;;;;;;;16.20;4.68;;;25.90;83.40;;;;;;5072442;28;20025;-61
2021/06/19 00:46:04;;;;;;;13.40;4.22;;;26.00;83.50;;;;;;5072723;28;20031;-61
2021/06/19 00:48:29;;;;;;;11.68;4.28;;;26.10;83.30;;;;;;5071903;28;20036;-62
2021/06/19 00:50:55;;;;;;;8.15;4.28;;;26.10;82.90;;;;;;5053961;28;20028;-62
2021/06/19 00:53:21;;;;;;;12.25;4.53;;;26.20;82.90;;;;;;5086678;28;20029;-62
2021/06/19 00:55:46;;;;;;;7.65;4.20;;;26.20;82.40;;;;;;5071680;28;20457;-62
2021/06/19 00:58:13;;;;;;;6.43;4.00;;;26.20;82.40;;;;;;5071971;28;20021;-61
2021/06/19 01:00:39;;;;;;;8.38;4.57;;;26.20;82.40;;;;;;5071836;28;20028;-62
2021/06/19 01:03:05;;;;;;;8.75;4.60;;;26.30;82.60;;;;;;5053471;28;20098;-62
2021/06/19 01:05:31;;;;;;;9.57;4.38;;;26.30;82.60;;;;;;5070999;28;20456;-62
2021/06/19 01:07:58;;;;;;;18.40;6.00;;;26.30;82.70;;;;;;5054018;28;20025;-62
2021/06/19 01:10:24;;;;;;;15.73;5.03;;;26.30;82.80;;;;;;5053107;28;20330;-61
2021/06/19 01:12:50;;;;;;;11.52;4.30;;;26.30;82.80;;;;;;5072011;28;20024;-61
2021/06/19 01:15:16;;;;;;;7.90;4.15;;;26.30;82.60;;;;;;5071186;28;20435;-62
2021/06/19 01:17:43;;;;;;;15.32;4.07;;;26.20;82.80;;;;;;5072081;28;20188;-62
2021/06/19 01:20:17;;;;;;;12.73;4.35;;;26.20;83.00;;;;;;5071900;28;20393;-61
2021/06/19 01:22:46;;;;;;;8.68;4.47;;;26.20;83.10;;;;;;5053844;28;20162;-61
2021/06/19 01:25:17;;;;;;;14.25;4.43;;;26.20;83.30;;;;;;5053927;28;20404;-61
2021/06/19 01:27:43;;;;;;;10.30;5.00;;;26.20;83.20;;;;;;5082529;28;20084;-62
2021/06/19 01:30:10;;;;;;;14.88;5.35;;;26.20;83.00;;;;;;5092066;28;20020;-62
2021/06/19 01:32:38;;;;;;;29.70;5.28;;;26.10;83.60;;;;;;5091226;28;20034;-63
2021/06/19 01:35:05;;;;;;;11.13;4.95;;;26.00;84.30;;;;;;5089623;28;20044;-62
2021/06/19 01:37:31;;;;;;;9.77;4.80;;;26.00;85.20;;;;;;5073054;28;20058;-61
2021/06/19 01:40:05;;;;;;;12.25;4.55;;;26.00;84.50;;;;;;5091629;28;20474;-62
2021/06/19 01:42:31;;;;;;;11.55;5.78;;;25.90;85.30;;;;;;5086915;28;20020;-61
2021/06/19 01:44:56;;;;;;;12.02;5.25;;;25.50;85.70;;;;;;5091425;28;20036;-60
2021/06/19 01:47:22;;;;;;;14.30;5.65;;;25.20;86.80;;;;;;5089958;28;20039;-60
2021/06/19 01:49:48;;;;;;;13.80;4.90;;;25.10;87.20;;;;;;5073201;28;20433;-61
2021/06/19 01:52:18;;;;;;;13.10;5.45;;;24.80;88.30;;;;;;5089288;28;20051;-61
2021/06/19 01:54:44;;;;;;;12.13;5.18;;;24.80;89.00;;;;;;5072897;28;20035;-61
2021/06/19 01:57:10;;;;;;;13.52;5.25;;;24.70;89.60;;;;;;5071148;28;20028;-60
2021/06/19 01:59:35;;;;;;;15.85;6.70;;;24.60;89.80;;;;;;5086457;28;20380;-62
2021/06/19 02:02:03;;;;;;;10.68;5.47;;;24.60;89.60;;;;;;5092613;28;20441;-62
2021/06/19 02:04:31;;;;;;;15.13;5.30;;;24.60;89.50;;;;;;5072157;28;20028;-62
2021/06/19 02:06:57;;;;;;;15.18;6.30;;;24.60;89.70;;;;;;5090687;28;20062;-60
2021/06/19 02:09:22;;;;;;;12.10;5.35;;;24.60;89.50;;;;;;5090696;28;20505;-61
2021/06/19 02:11:48;;;;;;;11.52;5.30;;;24.60;89.90;;;;;;5089569;28;20066;-61
2021/06/19 02:14:15;;;;;;;11.75;5.70;;;24.60;89.90;;;;;;5089699;28;20028;-61
2021/06/19 02:16:44;;;;;;;11.82;6.10;;;24.70;89.60;;;;;;5089896;28;20020;-61
2021/06/19 02:19:10;;;;;;;16.35;5.70;;;24.60;89.30;;;;;;5086560;28;20051;-61
2021/06/19 02:21:36;;;;;;;13.88;5.55;;;24.50;89.90;;;;;;5088068;28;20024;-61
2021/06/19 02:24:02;;;;;;;15.95;6.20;;;24.60;90.10;;;;;;5093732;28;20024;-61
2021/06/19 02:26:28;;;;;;;16.92;5.18;;;24.50;89.70;;;;;;5089294;28;20036;-61
2021/06/19 02:28:54;;;;;;;11.80;5.43;;;24.40;89.90;;;;;;5087722;28;20039;-61
2021/06/19 02:31:21;;;;;;;18.35;5.95;;;24.40;90.00;;;;;;5051993;28;20033;-66
2021/06/19 02:33:48;;;;;;;13.90;5.50;;;24.40;90.10;;;;;;5070065;28;20070;-61
2021/06/19 02:36:14;;;;;;;16.95;5.93;;;24.60;90.00;;;;;;5073720;28;20023;-61
2021/06/19 02:38:40;;;;;;;13.02;5.07;;;24.60;89.70;;;;;;5089003;28;20036;-61
2021/06/19 02:41:05;;;;;;;11.85;4.82;;;24.60;89.50;;;;;;5072587;28;20025;-61
2021/06/19 02:43:31;;;;;;;11.85;5.80;;;24.80;88.90;;;;;;5089213;28;20125;-61
2021/06/19 02:45:59;;;;;;;12.18;5.68;;;24.70;89.20;;;;;;5085671;28;20032;-61
2021/06/19 02:48:28;;;;;;;16.25;6.00;;;24.70;89.10;;;;;;5090908;28;20077;-61
2021/06/19 02:50:54;;;;;;;12.82;6.30;;;24.70;89.10;;;;;;5091245;28;20102;-61
2021/06/19 02:53:20;;;;;;;14.43;5.28;;;24.70;89.40;;;;;;5090171;28;20409;-66
2021/06/19 02:55:46;;;;;;;10.10;5.63;;;24.70;89.30;;;;;;5071829;28;20069;-61
2021/06/19 02:58:13;;;;;;;15.10;6.25;;;24.80;89.00;;;;;;5090201;28;20039;-61
2021/06/19 03:00:40;;;;;;;19.25;6.15;;;24.70;89.60;;;;;;5089438;28;20035;-61
2021/06/19 03:03:07;;;;;;;15.85;5.35;;;24.60;90.00;;;;;;5105575;28;20481;-61
2021/06/19 03:05:35;;;;;;;14.98;5.72;;;24.60;90.00;;;;;;5104985;28;20478;-62
2021/06/19 03:08:02;;;;;;;15.02;5.97;;;24.60;90.10;;;;;;5089797;28;20461;-61
2021/06/19 03:10:30;;;;;;;11.40;5.55;;;24.60;90.30;;;;;;5089263;28;20024;-62
2021/06/19 03:12:57;;;;;;;13.10;6.18;;;24.50;90.40;;;;;;5090010;28;20020;-61
2021/06/19 03:15:22;;;;;;;10.07;6.20;;;24.50;90.50;;;;;;5089601;28;20095;-67
2021/06/19 03:17:49;;;;;;;15.73;5.60;;;24.50;90.50;;;;;;5105029;28;20092;-61
2021/06/19 03:20:16;;;;;;;11.10;5.35;;;24.60;90.50;;;;;;5089327;28;20097;-61
2021/06/19 03:22:45;;;;;;;14.73;6.38;;;24.50;90.70;;;;;;5071185;28;20259;-61
2021/06/19 03:25:15;;;;;;;10.80;5.68;;;24.50;90.80;;;;;;5071465;28;20028;-61
2021/06/19 03:27:42;;;;;;;14.13;6.22;;;24.50;90.80;;;;;;5070869;28;20127;-61
2021/06/19 03:30:08;;;;;;;11.85;6.22;;;24.50;90.80;;;;;;5091200;28;20099;-61
2021/06/19 03:32:37;;;;;;;15.73;6.18;;;24.50;90.90;;;;;;5093366;28;20036;-61
2021/06/19 03:35:04;;;;;;;10.13;6.18;;;24.60;90.90;;;;;;5075818;28;20028;-60
2021/06/19 03:37:29;;;;;;;10.90;5.85;;;24.60;90.80;;;;;;5093526;28;20024;-61
2021/06/19 03:39:55;;;;;;;27.33;6.32;;;24.60;90.80;;;;;;5074965;28;20084;-60
2021/06/19 03:42:21;;;;;;;16.83;5.90;;;24.60;90.90;;;;;;5093515;28;20034;-61
2021/06/19 03:44:46;;;;;;;15.30;6.30;;;24.70;90.80;;;;;;5074473;28;20040;-60
2021/06/19 03:47:12;;;;;;;11.40;5.10;;;24.70;90.90;;;;;;5093574;28;20082;-62
2021/06/19 03:49:37;;;;;;;10.50;5.75;;;24.70;90.80;;;;;;5092975;28;20027;-61
2021/06/19 03:52:03;;;;;;;20.40;5.82;;;24.70;90.90;;;;;;5093560;28;20039;-61
2021/06/19 03:54:29;;;;;;;12.75;6.20;;;24.70;90.90;;;;;;5093008;28;20098;-61
2021/06/19 03:56:54;;;;;;;14.55;6.78;;;24.80;90.80;;;;;;5094012;28;20032;-61
2021/06/19 03:59:20;;;;;;;9.32;5.85;;;24.80;90.80;;;;;;5075177;28;20024;-61
2021/06/19 04:01:46;;;;;;;11.98;6.10;;;24.80;90.80;;;;;;5074143;28;20051;-61
2021/06/19 04:04:11;;;;;;;15.43;5.25;;;24.80;90.90;;;;;;5092786;28;20483;-61
2021/06/19 04:06:37;;;;;;;11.55;5.75;;;24.80;90.80;;;;;;5108199;28;20077;-61
2021/06/19 04:09:03;;;;;;;14.75;6.45;;;24.90;90.80;;;;;;5093635;28;20066;-61
2021/06/19 04:11:29;;;;;;;11.75;5.80;;;24.80;90.90;;;;;;5074167;28;20024;-61
2021/06/19 04:13:55;;;;;;;9.48;5.72;;;24.80;91.00;;;;;;5093379;28;20112;-61
2021/06/19 04:16:20;;;;;;;15.05;6.80;;;24.90;91.00;;;;;;5092790;28;20364;-61
2021/06/19 04:18:46;;;;;;;9.82;5.80;;;25.00;90.90;;;;;;5091991;28;20047;-61
2021/06/19 04:21:11;;;;;;;12.52;5.97;;;25.10;90.70;;;;;;5093109;28;20078;-61
2021/06/19 04:23:37;;;;;;;18.35;5.97;;;25.10;90.80;;;;;;5092043;28;20468;-61
2021/06/19 04:26:03;;;;;;;16.70;5.70;;;25.10;90.70;;;;;;5093163;28;20028;-61
2021/06/19 04:28:29;;;;;;;13.30;5.85;;;25.10;90.60;;;;;;5092392;28;20028;-65
2021/06/19 04:31:00;;;;;;;9.73;5.43;;;25.20;90.60;;;;;;5093247;28;20441;-62
2021/06/19 04:33:28;;;;;;;11.57;5.93;;;25.20;90.70;;;;;;5074901;28;20113;-68
2021/06/19 04:35:55;;;;;;;9.90;6.13;;;25.30;90.50;;;;;;5092681;28;20477;-61
2021/06/19 04:38:21;;;;;;;14.18;6.50;;;25.30;90.50;;;;;;5074664;28;20358;-62
2021/06/19 04:43:17;;;;;;;10.77;5.82;;;25.20;90.40;;;;;;5092680;28;20032;-61
2021/06/19 04:45:43;;;;;;;9.63;6.43;;;25.20;90.50;;;;;;5091883;28;20024;-62
2021/06/19 04:48:08;;;;;;;14.10;6.80;;;25.10;90.60;;;;;;5092146;28;20351;-62
2021/06/19 04:50:36;;;;;;;13.73;7.22;;;25.10;90.90;;;;;;5092236;28;20543;-62
2021/06/19 04:53:03;;;;;;;16.08;7.32;;;25.00;91.20;;;;;;5092722;28;20038;-62
2021/06/19 04:55:30;;;;;;;13.25;6.75;;;24.80;91.50;;;;;;5092719;28;20418;-68
2021/06/19 04:57:58;;;;;;;14.63;7.78;;;24.80;91.60;;;;;;5108321;28;20115;-62
2021/06/19 05:00:25;;;;;;;12.25;6.85;;;24.80;91.70;;;;;;5073820;28;20020;-61
2021/06/19 05:02:51;;;;;;;15.00;6.78;;;24.70;91.80;;;;;;5091942;28;20024;-62
2021/06/19 05:05:17;;;;;;;13.40;7.35;;;24.30;92.50;;;;;;5108210;28;20082;-62
2021/06/19 05:07:43;;;;;;;14.35;7.43;;;24.40;92.40;;;;;;5107625;28;20407;-61
2021/06/19 05:10:10;;;;;;;15.00;6.75;;;24.20;92.60;;;;;;5092450;28;20028;-61
2021/06/19 05:12:39;;;;;;;21.98;8.63;;;24.20;92.90;;;;;;5091973;28;20040;-62
2021/06/19 05:15:06;;;;;;;13.80;8.30;;;24.30;92.70;;;;;;5074312;28;20028;-65
2021/06/19 05:17:31;;;;;;;15.80;7.50;;;24.20;92.90;;;;;;5073435;28;20126;-61
2021/06/19 05:19:58;;;;;;;15.40;7.85;;;24.40;92.80;;;;;;5091773;28;20137;-60
2021/06/19 05:22:24;;;;;;;16.95;7.72;;;24.40;92.60;;;;;;5074034;28;20028;-61
2021/06/19 05:24:50;;;;;;;14.65;6.53;;;24.50;92.50;;;;;;5073519;28;20062;-61
2021/06/19 05:27:16;;;;;;;25.08;8.55;;;24.40;92.80;;;;;;5091914;28;20039;-61
2021/06/19 05:29:42;;;;;;;17.98;7.95;;;24.30;93.00;;;;;;5106907;28;20077;-60
2021/06/19 05:32:08;;;;;;;25.52;7.78;;;24.30;93.10;;;;;;5073603;28;20449;-60
2021/06/19 05:34:34;;;;;;;10.60;6.63;;;24.40;93.00;;;;;;5091522;28;20055;-60
2021/06/19 05:36:59;;;;;;;14.50;7.60;;;24.40;93.10;;;;;;5091679;28;20405;-61
2021/06/19 05:39:25;;;;;;;13.30;7.45;;;24.30;93.20;;;;;;5091402;28;20424;-61
2021/06/19 05:41:51;;;;;;;11.65;6.72;;;24.40;93.30;;;;;;5106690;28;20104;-61
2021/06/19 05:44:16;;;;;;;11.02;6.95;;;24.50;92.90;;;;;;5073308;28;20039;-61
2021/06/19 05:46:42;;;;;;;13.43;7.03;;;24.60;92.70;;;;;;5090780;28;20063;-61
2021/06/19 05:49:08;;;;;;;12.35;6.45;;;24.80;92.70;;;;;;5091530;28;20147;-60
2021/06/19 05:51:34;;;;;;;15.88;6.25;;;24.90;92.10;;;;;;5091061;28;20428;-61
2021/06/19 05:54:00;;;;;;;17.08;6.45;;;24.80;92.60;;;;;;5072401;28;20123;-61
2021/06/19 05:56:26;;;;;;;13.65;6.45;;;24.80;92.20;;;;;;5107337;28;20412;-62
2021/06/19 05:58:52;;;;;;;13.50;6.70;;;24.80;92.10;;;;;;5091005;28;20024;-62
2021/06/19 06:01:18;;;;;;;20.25;6.18;;;24.90;91.90;;;;;;5091736;28;20031;-61
2021/06/19 06:03:44;;;;;;;14.95;5.65;;;25.20;91.70;;;;;;5090651;28;20487;-64
2021/06/19 06:06:10;;;;;;;12.57;7.00;;;25.00;91.80;;;;;;5073310;28;20063;-61
2021/06/19 06:08:36;;;;;;;13.98;6.35;;;24.90;92.10;;;;;;5106589;28;20035;-62
2021/06/19 06:11:02;;;;;;;13.18;6.10;;;25.00;91.90;;;;;;5072925;28;20020;-62
2021/06/19 06:13:28;;;;;;;8.98;5.38;;;25.00;91.80;;;;;;5072798;28;20032;-62
2021/06/19 06:15:53;;;;;;;9.57;5.85;;;25.10;91.60;;;;;;5090511;28;20028;-61
2021/06/19 06:18:19;;;;;;;15.02;6.22;;;25.40;91.30;;;;;;5103077;28;20529;-61
2021/06/19 06:20:45;;;;;;;10.23;5.32;;;25.60;91.20;;;;;;5068829;28;20120;-62
2021/06/19 06:23:10;;;;;;;10.98;6.13;;;25.80;91.00;;;;;;5071182;28;20428;-61
2021/06/19 06:25:36;;;;;;;7.88;5.40;;;25.80;90.30;;;;;;5068686;28;20035;-62
2021/06/19 06:28:02;;;;;;;11.80;4.82;;;25.90;89.80;;;;;;5070764;28;20177;-62
2021/06/19 06:30:28;;;;;;;21.27;5.15;;;25.90;89.90;;;;;;5069165;28;20072;-61
2021/06/19 06:32:54;;;;;;;7.18;3.75;;;25.90;90.20;;;;;;5069734;28;20078;-49
2021/06/19 06:35:19;;;;;;;5.32;3.90;;;26.40;91.40;;;;;;5067926;28;20036;-50
2021/06/19 06:37:45;;;;;;;10.63;4.65;;;26.90;90.40;;;;;;5054023;28;20127;-49
2021/06/19 06:40:13;;;;;;;10.98;4.82;;;26.90;88.70;;;;;;5067678;28;20079;-50
2021/06/19 06:42:42;;;;;;;9.48;5.22;;;27.10;86.70;;;;;;5065630;28;20032;-54
2021/06/19 06:45:10;;;;;;;9.38;4.65;;;27.00;87.00;;;;;;5066528;28;20105;-50
2021/06/19 06:47:35;;;;;;;11.98;5.15;;;26.90;86.40;;;;;;5067192;28;20058;-53
2021/06/19 06:50:02;;;;;;;12.80;4.30;;;27.10;87.40;;;;;;5066208;28;20107;-54
2021/06/19 06:52:28;;;;;;;7.18;4.57;;;27.30;87.60;;;;;;5069210;28;20102;-51
2021/06/19 06:54:53;;;;;;;14.65;4.60;;;27.30;86.30;;;;;;5067145;28;20529;-51
2021/06/19 06:57:19;;;;;;;14.38;4.82;;;27.20;85.40;;;;;;5068358;28;20081;-51
2021/06/19 06:59:45;;;;;;;8.88;4.22;;;27.40;85.30;;;;;;5069445;28;20076;-52
2021/06/19 07:02:11;;;;;;;6.20;3.85;;;27.40;84.70;;;;;;5069933;28;20020;-52
2021/06/19 07:04:37;;;;;;;4.47;3.60;;;27.30;84.50;;;;;;5068018;28;20129;-55
2021/06/19 07:07:03;;;;;;;7.15;4.10;;;27.30;83.80;;;;;;5067677;28;20465;-56
2021/06/19 07:09:29;;;;;;;6.90;3.92;;;27.40;84.10;;;;;;5069421;28;20136;-54
2021/06/19 07:11:54;;;;;;;10.80;4.50;;;27.50;83.30;;;;;;5066846;28;20027;-52
2021/06/19 07:14:20;;;;;;;7.03;3.67;;;27.60;83.70;;;;;;5064831;28;20024;-53
2021/06/19 07:16:46;;;;;;;7.97;3.30;;;27.80;83.40;;;;;;5068408;28;20090;-52
2021/06/19 07:19:11;;;;;;;6.75;3.45;;;27.90;82.60;;;;;;5067414;28;20044;-52
2021/06/19 07:21:37;;;;;;;6.68;3.10;;;28.00;81.50;;;;;;5067246;28;20466;-59
2021/06/19 07:24:03;;;;;;;9.93;3.25;;;28.00;82.00;;;;;;5066946;28;20037;-54
2021/06/19 07:26:29;;;;;;;5.05;3.25;;;28.10;80.00;;;;;;5067737;28;20060;-52
2021/06/19 07:28:55;;;;;;;6.40;2.67;;;27.90;80.20;;;;;;5066930;28;20438;-51
2021/06/19 07:31:20;;;;;;;3.97;2.40;;;27.80;78.70;;;;;;5069634;28;20056;-51
2021/06/19 07:33:46;;;;;;;5.57;2.63;;;27.90;81.00;;;;;;5067063;28;20496;-54
2021/06/19 07:36:12;;;;;;;8.32;2.80;;;28.00;79.80;;;;;;5068133;28;20154;-52
2021/06/19 07:38:37;;;;;;;5.05;2.30;;;28.00;78.20;;;;;;5066060;28;20028;-58
2021/06/19 07:41:03;;;;;;;4.82;2.17;;;28.10;77.40;;;;;;5066248;28;20028;-51
2021/06/19 07:43:29;;;;;;;4.18;2.33;;;28.00;76.70;;;;;;5066507;28;20025;-53
2021/06/19 07:45:56;;;;;;;6.03;2.53;;;28.00;77.90;;;;;;5067267;28;20541;-51
2021/06/19 07:48:22;;;;;;;5.57;1.90;;;28.10;78.00;;;;;;5068654;28;20029;-52
2021/06/19 07:50:48;;;;;;;4.85;2.63;;;28.00;75.80;;;;;;5064047;28;20385;-52
2021/06/19 07:53:14;;;;;;;4.88;2.25;;;28.00;77.10;;;;;;5069372;28;20165;-62
2021/06/19 07:55:39;;;;;;;6.90;2.70;;;28.00;77.30;;;;;;5068964;28;20218;-63
2021/06/19 07:58:05;;;;;;;2.90;2.22;;;28.00;76.70;;;;;;5067679;28;20039;-63
2021/06/19 08:00:31;;;;;;;7.43;2.85;;;28.00;76.90;;;;;;5068527;28;20063;-62
2021/06/19 08:02:58;;;;;;;6.80;2.33;;;27.90;76.30;;;;;;5050184;28;20154;-62
2021/06/19 08:05:24;;;;;;;4.63;1.30;;;28.10;75.60;;;;;;5067150;28;20203;-61
2021/06/19 08:07:49;;;;;;;5.93;1.52;;;28.10;75.00;;;;;;5068067;28;20644;-62
2021/06/19 08:10:15;;;;;;;4.85;1.50;;;28.30;74.10;;;;;;5067945;28;20127;-63
2021/06/19 08:12:42;;;;;;;7.38;1.75;;;28.30;73.50;;;;;;5067833;28;20111;-62
2021/06/19 08:15:09;;;;;;;3.90;1.88;;;28.30;74.20;;;;;;5069010;28;20112;-62
2021/06/19 08:17:35;;;;;;;5.55;2.00;;;28.50;73.60;;;;;;5071302;28;20073;-62
2021/06/19 08:20:00;;;;;;;6.15;2.03;;;28.80;74.60;;;;;;5090107;28;20546;-62
2021/06/19 08:22:26;;;;;;;4.95;2.78;;;29.00;75.10;;;;;;5073801;28;20055;-62
2021/06/19 08:24:52;;;;;;;4.55;2.38;;;28.80;75.40;;;;;;5092194;28;20036;-62
2021/06/19 08:27:22;;;;;;;5.65;2.47;;;28.80;76.20;;;;;;5092449;28;20047;-62
2021/06/19 08:29:57;;;;;;;;;;;28.80;75.40;;;;;;5092706;28;20017;-63
2021/06/19 08:32:23;;;;;;;4.60;2.92;;;28.70;75.60;;;;;;5093036;28;19933;-63
2021/06/19 08:34:49;;;;;;;10.23;2.85;;;28.80;75.60;;;;;;5092374;28;20031;-62
2021/06/19 08:37:15;;;;;;;5.20;2.25;;;29.00;75.60;;;;;;5108093;28;20028;-62
2021/06/19 08:39:42;;;;;;;4.85;3.03;;;29.10;73.80;;;;;;5073501;28;20430;-62
2021/06/19 08:42:07;;;;;;;8.82;2.85;;;29.10;73.40;;;;;;5074190;28;20028;-63
2021/06/19 08:44:35;;;;;;;3.08;2.00;;;29.20;73.30;;;;;;5092097;28;20043;-62
2021/06/19 08:47:01;;;;;;;7.15;2.88;;;29.30;73.00;;;;;;5091891;28;20038;-62
2021/06/19 08:49:28;;;;;;;8.88;3.05;;;29.30;72.90;;;;;;5092592;28;20095;-63
2021/06/19 08:51:55;;;;;;;5.13;2.17;;;29.30;72.80;;;;;;5091907;28;20124;-62
2021/06/19 08:54:25;;;;;;;7.03;2.47;;;29.50;72.70;;;;;;5092068;28;20534;-62
2021/06/19 08:56:51;;;;;;;5.18;2.40;;;29.60;72.50;;;;;;5073452;28;20059;-62
2021/06/19 08:59:17;;;;;;;4.80;2.25;;;29.80;72.40;;;;;;5091996;28;20055;-62
2021/06/19 09:01:43;;;;;;;5.93;2.78;;;29.80;72.50;;;;;;5091090;28;20024;-62
2021/06/19 09:04:11;;;;;;;6.70;2.40;;;29.70;71.60;;;;;;5073582;28;20036;-62
2021/06/19 09:06:42;;;;;;;6.38;2.45;;;29.90;71.10;;;;;;5073519;28;20541;-62
2021/06/19 09:09:16;;;;;;;8.95;2.67;;;29.80;70.80;;;;;;5073775;28;20052;-61
2021/06/19 09:11:49;;;;;;;6.95;2.92;;;29.80;71.10;;;;;;5090815;28;20040;-63
2021/06/19 09:14:17;;;;;;;2.45;1.83;;;30.00;70.80;;;;;;5092440;28;20028;-62
2021/06/19 09:17:01;;;;;;;8.05;2.50;;;30.20;71.80;;;;;;5091104;28;20035;-62
2021/06/19 09:19:33;;;;;;;11.95;2.78;;;30.60;71.50;;;;;;5072706;28;20048;-61
2021/06/19 09:22:14;;;;;;;5.35;2.70;;;30.30;71.20;;;;;;5090827;28;20063;-62
2021/06/19 09:24:51;;;;;;;4.95;2.60;;;30.20;71.00;;;;;;5091506;28;20051;-62
2021/06/19 09:27:38;;;;;;;7.00;2.45;;;30.30;71.00;;;;;;5106723;28;20034;-62
2021/06/19 09:30:21;;;;;;;3.03;2.30;;;30.20;71.60;;;;;;5090719;28;20145;-62
2021/06/19 09:32:58;;;;;;;4.65;2.97;;;30.50;71.90;;;;;;5071740;28;20465;-61
2021/06/19 09:35:25;;;;;;;7.13;2.70;;;30.90;70.90;;;;;;5091163;28;20126;-62
2021/06/19 09:37:58;;;;;;;4.57;2.70;;;31.20;71.10;;;;;;5090317;28;20069;-61
2021/06/19 09:40:35;;;;;;;8.20;2.50;;;31.70;70.30;;;;;;5090719;28;20028;-63
2021/06/19 09:43:17;;;;;;;8.60;2.33;;;31.60;69.00;;;;;;5071349;28;20070;-61
2021/06/19 09:46:05;;;;;;;9.52;3.17;;;31.40;69.50;;;;;;5090376;28;20024;-70
2021/06/19 09:48:36;;;;;;;4.80;2.42;;;31.10;70.60;;;;;;5072395;28;20036;-63
2021/06/19 09:51:09;;;;;;;8.38;2.85;;;31.20;69.70;;;;;;5089937;28;20098;-62
2021/06/19 09:53:34;;;;;;;8.70;2.85;;;31.00;69.90;;;;;;5105982;28;20437;-63
2021/06/19 09:56:05;;;;;;;8.38;3.50;;;30.80;70.50;;;;;;5105943;28;20056;-62
2021/06/19 09:58:49;;;;;;;5.22;2.65;;;30.80;70.60;;;;;;5072371;28;20024;-62
2021/06/19 10:01:19;;;;;;;5.60;2.50;;;30.90;70.50;;;;;;5072516;28;20039;-62
2021/06/19 10:03:56;;;;;;;8.75;3.13;;;31.00;69.40;;;;;;5089969;28;20032;-62
2021/06/19 10:06:24;;;;;;;6.78;2.63;;;31.10;69.90;;;;;;5090664;28;20119;-63
2021/06/19 10:08:50;;;;;;;8.10;3.10;;;31.60;70.80;;;;;;5105463;28;20120;-61
2021/06/19 10:11:18;;;;;;;9.00;2.53;;;31.90;69.70;;;;;;5072297;28;20063;-62
2021/06/19 10:13:45;;;;;;;11.23;3.17;;;32.00;68.80;;;;;;5071476;28;20212;-61
2021/06/19 10:16:13;;;;;;;6.05;2.92;;;31.80;68.10;;;;;;5089911;28;20047;-61
2021/06/19 10:18:40;;;;;;;4.60;2.30;;;31.70;68.00;;;;;;5071207;28;20056;-62
2021/06/19 10:21:06;;;;;;;4.43;2.42;;;31.60;68.00;;;;;;5104633;28;20416;-61
2021/06/19 10:23:33;;;;;;;7.78;3.10;;;31.70;68.30;;;;;;5089807;28;20035;-62
2021/06/19 10:25:59;;;;;;;5.63;2.28;;;31.80;68.00;;;;;;5088967;28;20508;-62
2021/06/19 10:28:26;;;;;;;8.27;2.80;;;31.90;68.60;;;;;;5090190;28;20032;-63
2021/06/19 10:30:54;;;;;;;6.88;2.90;;;32.00;67.80;;;;;;5089177;28;20056;-61
2021/06/19 10:33:31;;;;;;;7.07;2.63;;;32.00;68.20;;;;;;5089647;28;20133;-62
2021/06/19 10:36:01;;;;;;;6.03;2.72;;;32.10;68.40;;;;;;5089298;28;20142;-62
2021/06/19 10:38:27;;;;;;;5.47;2.88;;;32.60;67.70;;;;;;5070901;28;20024;-61
2021/06/19 10:40:55;;;;;;;9.23;2.45;;;32.80;67.30;;;;;;5089778;28;20066;-63
2021/06/19 10:43:22;;;;;;;8.70;2.92;;;32.90;67.30;;;;;;5089749;28;20020;-62
2021/06/19 10:45:49;;;;;;;5.70;2.30;;;33.10;67.90;;;;;;5088939;28;20393;-62
2021/06/19 10:48:35;;;;;;;9.13;2.80;;;33.40;66.40;;;;;;5090028;28;20063;-63
2021/06/19 10:51:19;;;;;;;9.32;2.90;;;33.00;65.40;;;;;;5070809;28;20024;-62
2021/06/19 10:54:19;;;;;;;5.55;2.75;;;32.60;65.80;;;;;;5089911;28;20032;-61
2021/06/19 10:56:51;;;;;;;7.65;2.92;;;32.60;66.30;;;;;;5070591;28;20059;-62
2021/06/19 10:59:25;;;;;;;6.72;2.50;;;32.60;66.50;;;;;;5104301;28;20496;-62
2021/06/19 11:01:52;;;;;;;7.55;3.58;;;32.90;66.50;;;;;;5103935;28;20020;-62
2021/06/19 11:04:48;;;;;;;8.85;2.90;;;32.70;65.90;;;;;;5089785;28;20036;-63
2021/06/19 11:07:17;;;;;;;11.90;3.35;;;33.00;66.00;;;;;;5072521;28;20095;-63
2021/06/19 11:09:45;;;;;;;9.38;3.20;;;32.50;66.60;;;;;;5089426;28;20025;-63
2021/06/19 11:12:22;;;;;;;8.35;2.63;;;32.90;65.80;;;;;;5088109;28;20388;-62
2021/06/19 11:14:52;;;;;;;8.65;2.40;;;32.60;65.20;;;;;;5104199;28;20026;-70
2021/06/19 11:17:21;;;;;;;8.80;2.95;;;32.70;65.40;;;;;;5089245;28;20032;-62
2021/06/19 11:19:59;;;;;;;10.95;2.92;;;32.70;64.50;;;;;;5088871;28;20067;-62
2021/06/19 11:22:54;;;;;;;7.65;3.20;;;32.90;65.40;;;;;;5105051;28;20059;-62
2021/06/19 11:25:44;;;;;;;8.98;2.45;;;32.90;64.20;;;;;;5105079;28;20333;-62
2021/06/19 11:28:11;;;;;;;8.07;2.83;;;33.20;65.30;;;;;;5070583;28;20086;-64
2021/06/19 11:30:39;;;;;;;12.20;2.30;;;33.70;63.60;;;;;;5089403;28;20046;-62
2021/06/19 11:33:20;;;;;;;4.78;2.53;;;33.90;62.00;;;;;;5088752;28;20028;-61
2021/06/19 11:36:29;;;;;;;6.78;3.08;;;33.60;62.90;;;;;;5104920;28;20032;-64
2021/06/19 11:39:03;;;;;;;11.63;2.75;;;33.60;62.30;;;;;;5087632;28;20564;-62
2021/06/19 11:41:33;;;;;;;10.52;3.05;;;33.70;63.00;;;;;;5104480;28;20024;-62
2021/06/19 11:44:00;;;;;;;8.15;2.65;;;33.70;62.90;;;;;;5088345;28;20032;-61
2021/06/19 11:46:26;;;;;;;4.03;2.50;;;33.50;62.20;;;;;;5070637;28;20043;-62
2021/06/19 11:48:56;;;;;;;7.28;2.42;;;33.40;60.40;;;;;;5069988;28;20024;-64
2021/06/19 11:51:26;;;;;;;6.18;1.90;;;33.50;60.50;;;;;;5106393;28;20090;-62
2021/06/19 11:53:53;;;;;;;8.50;2.17;;;33.50;59.40;;;;;;5108499;28;20046;-64
2021/06/19 11:56:27;;;;;;;7.80;2.42;;;33.50;59.30;;;;;;5093435;28;20028;-62
2021/06/19 11:58:56;;;;;;;3.70;2.15;;;33.60;59.00;;;;;;5092837;28;20028;-63
2021/06/19 12:01:29;;;;;;;10.25;3.15;;;33.70;59.60;;;;;;5093084;28;20491;-62
2021/06/19 12:04:04;;;;;;;8.00;2.55;;;34.10;60.90;;;;;;5092857;28;20028;-61
2021/06/19 12:06:38;;;;;;;8.45;2.33;;;34.20;60.80;;;;;;5093274;28;20024;-62
2021/06/19 12:09:31;;;;;;;8.65;2.58;;;34.20;60.30;;;;;;5092543;28;20096;-63
2021/06/19 12:12:05;;;;;;;10.38;2.83;;;34.10;60.50;;;;;;5070364;28;20051;-62
2021/06/19 12:14:36;;;;;;;7.93;2.17;;;34.50;61.50;;;;;;5109111;28;20024;-62
2021/06/19 12:17:10;;;;;;;5.68;2.40;;;34.50;59.30;;;;;;5092577;28;20058;-64
2021/06/19 12:19:38;;;;;;;7.60;2.22;;;34.60;59.20;;;;;;5074557;28;20453;-65
2021/06/19 12:22:09;;;;;;;10.68;2.50;;;34.90;58.90;;;;;;5092409;28;20027;-63
2021/06/19 12:24:44;;;;;;;9.52;1.88;;;34.90;58.20;;;;;;5093031;28;20104;-64
2021/06/19 12:27:17;;;;;;;5.78;2.53;;;34.60;58.20;;;;;;5091869;28;20032;-62
2021/06/19 12:29:57;;;;;;;5.45;2.47;;;34.10;58.50;;;;;;5074292;28;20062;-61
2021/06/19 12:32:26;;;;;;;9.23;2.97;;;33.70;58.70;;;;;;5092658;28;20028;-62
2021/06/19 12:34:54;;;;;;;7.78;2.58;;;33.80;59.70;;;;;;5092171;28;20028;-62
2021/06/19 12:37:32;;;;;;;8.00;2.88;;;33.70;60.10;;;;;;5073496;28;20145;-62
2021/06/19 12:40:01;;;;;;;8.15;2.80;;;33.70;59.80;;;;;;5073089;28;20053;-62
2021/06/19 12:42:40;;;;;;;10.88;2.38;;;33.70;60.20;;;;;;5091615;28;20116;-62
2021/06/19 12:45:06;;;;;;;15.98;3.20;;;33.30;60.80;;;;;;5091341;28;20414;-62
2021/06/19 12:47:37;;;;;;;3.15;1.98;;;33.30;60.50;;;;;;5092089;28;20035;-62
2021/06/19 12:50:04;;;;;;;9.63;2.42;;;33.50;59.80;;;;;;5091447;28;20026;-62
2021/06/19 12:52:29;;;;;;;7.45;1.92;;;33.70;58.90;;;;;;5073294;28;20037;-62